createdAt,value
2019-03-18T00:00:41.097Z,88.07
2019-03-18T00:05:35.062Z,87.43
2019-03-18T00:10:29.128Z,86.91
2019-03-18T00:15:23.192Z,86.92
2019-03-18T00:20:17.160Z,86.67
2019-03-18T00:25:14.639Z,86.75
2019-03-18T00:30:16.303Z,87.03
2019-03-18T00:35:10.352Z,87.21
2019-03-18T00:40:12.718Z,87.15
2019-03-18T00:45:14.806Z,87.04
2019-03-18T00:50:05.559Z,86.99
2019-03-18T00:54:59.539Z,87.31
2019-03-18T00:59:53.495Z,87.14
2019-03-18T01:04:47.509Z,86.57
2019-03-18T01:09:41.510Z,86.33
2019-03-18T01:14:35.476Z,85.94
2019-03-18T01:19:29.431Z,85.86
2019-03-18T01:24:23.386Z,85.99
2019-03-18T01:29:17.368Z,85.86
2019-03-18T01:34:11.442Z,85.98
2019-03-18T01:39:05.500Z,86.32
2019-03-18T01:43:59.479Z,86.57
2019-03-18T01:48:53.479Z,86.37
2019-03-18T01:53:47.436Z,86.49
2019-03-18T01:58:41.517Z,86.01
2019-03-18T02:03:35.482Z,85.70
2019-03-18T02:08:29.423Z,86.25
2019-03-18T02:13:23.398Z,86.07
2019-03-18T02:18:17.379Z,86.15
2019-03-18T02:23:11.335Z,86.30
2019-03-18T02:28:05.319Z,85.94
2019-03-18T02:32:59.296Z,85.63
2019-03-18T02:37:53.274Z,84.92
2019-03-18T02:42:47.248Z,84.48
2019-03-18T02:47:41.213Z,84.46
2019-03-18T02:52:35.282Z,84.66
2019-03-18T02:57:29.248Z,84.78
2019-03-18T03:02:23.205Z,84.00
2019-03-18T03:07:17.265Z,84.00
2019-03-18T03:12:11.224Z,84.32
2019-03-18T03:17:05.179Z,84.08
2019-03-18T03:21:59.191Z,84.39
2019-03-18T03:26:53.140Z,83.69
2019-03-18T03:31:47.119Z,83.67
2019-03-18T03:36:41.098Z,83.29
2019-03-18T03:41:35.342Z,82.03
2019-03-18T03:46:42.210Z,81.70
2019-03-18T03:51:25.157Z,81.76
2019-03-18T03:56:19.152Z,81.51
2019-03-18T04:01:13.534Z,81.73
2019-03-18T04:06:07.474Z,82.49
2019-03-18T04:11:01.558Z,83.35
2019-03-18T04:15:55.493Z,84.12
2019-03-18T04:20:49.587Z,85.01
2019-03-18T04:25:43.524Z,85.96
2019-03-18T04:30:37.575Z,88.86
2019-03-18T04:35:31.639Z,88.86
2019-03-18T04:40:25.594Z,89.43
2019-03-18T04:45:19.572Z,89.99
2019-03-18T04:50:13.639Z,89.96
2019-03-18T04:55:07.724Z,90.04
2019-03-18T05:00:07.218Z,89.90
2019-03-18T05:05:01.183Z,89.92
2019-03-18T05:09:55.142Z,89.65
2019-03-18T05:14:49.060Z,89.43
2019-03-18T05:19:43.063Z,89.64
2019-03-18T05:24:37.031Z,89.79
2019-03-18T05:29:31.025Z,89.96
2019-03-18T05:34:25.009Z,89.18
2019-03-18T05:39:19.197Z,88.68
2019-03-18T05:44:13.177Z,88.92
2019-03-18T05:49:07.144Z,88.97
2019-03-18T05:54:01.117Z,88.62
2019-03-18T05:58:55.092Z,88.56
2019-03-18T06:03:49.043Z,88.03
2019-03-18T06:08:43.017Z,87.43
2019-03-18T06:13:36.978Z,87.06
2019-03-18T06:18:31.050Z,87.01
2019-03-18T06:23:25.157Z,86.64
2019-03-18T06:28:19.359Z,86.20
2019-03-18T06:33:13.354Z,85.94
2019-03-18T06:38:07.346Z,85.54
2019-03-18T06:43:01.328Z,85.61
2019-03-18T06:48:04.393Z,84.35
2019-03-18T06:52:51.228Z,83.41
2019-03-18T06:57:45.199Z,83.85
2019-03-18T07:02:39.171Z,83.10
2019-03-18T07:07:33.257Z,82.85
2019-03-18T07:12:27.220Z,82.22
2019-03-18T07:17:21.182Z,82.90
2019-03-18T07:22:15.177Z,82.34
2019-03-18T07:27:09.212Z,82.64
2019-03-18T07:32:03.303Z,81.85
2019-03-18T07:36:57.289Z,81.79
2019-03-18T07:41:51.289Z,81.13
2019-03-18T07:46:45.255Z,79.68
2019-03-18T07:51:39.198Z,78.36
2019-03-18T07:56:33.180Z,78.78
2019-03-18T08:01:27.164Z,79.42
2019-03-18T08:06:21.284Z,80.12
2019-03-18T08:11:15.248Z,79.31
2019-03-18T08:16:09.222Z,78.04
2019-03-18T08:21:03.300Z,77.40
2019-03-18T08:25:57.258Z,74.52
2019-03-18T08:30:51.256Z,74.53
2019-03-18T08:35:45.238Z,74.69
2019-03-18T08:40:39.308Z,73.47
2019-03-18T08:45:33.301Z,73.80
2019-03-18T08:50:27.249Z,72.46
2019-03-18T08:55:21.488Z,72.40
2019-03-18T09:00:16.470Z,69.99
2019-03-18T09:05:10.552Z,67.39
2019-03-18T09:10:10.419Z,67.35
2019-03-18T09:15:06.498Z,68.40
2019-03-18T09:20:00.473Z,67.49
2019-03-18T09:24:54.454Z,65.37
2019-03-18T09:29:48.464Z,65.00
2019-03-18T09:34:42.539Z,62.33
2019-03-18T09:39:37.574Z,63.48
2019-03-18T09:44:31.821Z,63.21
2019-03-18T09:49:25.797Z,57.83
2019-03-18T09:54:19.773Z,55.53
2019-03-18T09:59:13.749Z,56.04
2019-03-18T10:04:07.718Z,55.50
2019-03-18T10:09:01.798Z,57.77
2019-03-18T10:13:55.863Z,57.31
2019-03-18T10:18:49.869Z,59.23
2019-03-18T10:23:43.949Z,56.25
2019-03-18T10:28:38.212Z,55.67
2019-03-18T10:33:32.345Z,54.95
2019-03-18T10:38:26.312Z,54.94
2019-03-18T10:43:20.318Z,55.72
2019-03-18T10:48:14.289Z,56.86
2019-03-18T10:53:08.368Z,51.50
2019-03-18T10:58:02.362Z,51.29
2019-03-18T11:02:56.297Z,49.16
2019-03-18T11:07:51.885Z,51.96
2019-03-18T11:12:46.170Z,48.09
2019-03-18T11:17:40.121Z,41.74
2019-03-18T11:22:34.209Z,37.59
2019-03-18T11:27:28.184Z,43.17
2019-03-18T11:32:22.196Z,47.03
2019-03-18T11:37:16.196Z,32.01
2019-03-18T11:42:10.169Z,31.99
2019-03-18T11:47:04.349Z,41.46
2019-03-18T11:51:58.326Z,43.54
2019-03-18T11:56:52.298Z,39.56
2019-03-18T12:01:46.264Z,24.91
2019-03-18T12:06:40.363Z,23.45
2019-03-18T12:11:34.550Z,33.79
2019-03-18T12:16:28.513Z,36.75
2019-03-18T12:21:22.532Z,35.60
2019-03-18T12:26:16.630Z,35.92
2019-03-18T12:31:10.656Z,36.60
2019-03-18T12:36:04.777Z,27.68
2019-03-18T12:40:58.914Z,31.41
2019-03-18T12:45:52.848Z,33.34
2019-03-18T12:50:56.002Z,19.44
2019-03-18T12:55:44.033Z,24.97
2019-03-18T13:00:37.986Z,24.57
2019-03-18T13:05:32.059Z,35.02
2019-03-18T13:10:26.116Z,41.02
2019-03-18T13:15:20.121Z,41.12
2019-03-18T13:20:17.115Z,38.45
2019-03-18T13:25:11.832Z,40.36
2019-03-18T13:30:16.286Z,38.86
2019-03-18T13:35:10.444Z,41.58
2019-03-18T13:40:10.007Z,40.29
2019-03-18T13:45:07.807Z,40.84
2019-03-18T13:50:02.091Z,39.05
2019-03-18T13:54:56.178Z,40.95
2019-03-18T13:59:50.150Z,42.36
2019-03-18T14:04:44.142Z,42.06
2019-03-18T14:09:38.210Z,39.72
2019-03-18T14:14:32.178Z,38.51
2019-03-18T14:19:26.188Z,36.18
2019-03-18T14:24:20.193Z,27.86
2019-03-18T14:29:14.211Z,18.95
2019-03-18T14:34:08.154Z,13.48
2019-03-18T14:39:04.348Z,11.31
2019-03-18T14:43:58.360Z,11.74
2019-03-18T14:48:52.347Z,13.95
2019-03-18T14:53:46.340Z,19.89
2019-03-18T14:58:40.324Z,18.43
2019-03-18T15:03:34.312Z,12.87
2019-03-18T15:08:28.302Z,15.57
2019-03-18T15:13:30.833Z,22.23
2019-03-18T15:18:18.305Z,25.79
2019-03-18T15:23:12.291Z,28.78
2019-03-18T15:28:06.374Z,32.71
2019-03-18T15:33:00.363Z,33.89
2019-03-18T15:37:54.474Z,35.11
2019-03-18T15:42:48.553Z,35.22
2019-03-18T15:47:42.656Z,35.27
2019-03-18T15:52:36.646Z,36.71
2019-03-18T15:57:30.675Z,36.56
2019-03-18T16:02:24.603Z,36.86
2019-03-18T16:07:18.660Z,24.32
2019-03-18T16:12:12.719Z,17.14
2019-03-18T16:17:06.813Z,17.89
2019-03-18T16:22:00.826Z,23.31
2019-03-18T16:26:54.895Z,25.86
2019-03-18T16:31:48.955Z,28.43
2019-03-18T16:36:42.909Z,30.68
2019-03-18T16:41:37.010Z,33.39
2019-03-18T16:46:30.987Z,32.66
2019-03-18T16:51:25.004Z,28.93
2019-03-18T16:56:19.002Z,23.85
2019-03-18T17:01:13.045Z,26.91
2019-03-18T17:06:07.219Z,33.88
2019-03-18T17:11:01.209Z,39.08
2019-03-18T17:15:55.305Z,41.42
2019-03-18T17:20:49.364Z,42.17
2019-03-18T17:25:43.433Z,43.30
2019-03-18T17:30:37.469Z,44.54
2019-03-18T17:35:31.454Z,45.83
2019-03-18T17:40:25.542Z,47.05
2019-03-18T17:45:19.631Z,48.44
2019-03-18T17:50:19.315Z,49.13
2019-03-18T17:55:13.438Z,50.55
2019-03-18T18:00:11.000Z,53.19
2019-03-18T18:05:05.244Z,54.29
2019-03-18T18:09:59.300Z,55.42
2019-03-18T18:14:53.541Z,55.88
2019-03-18T18:19:47.525Z,55.42
2019-03-18T18:24:41.542Z,55.22
2019-03-18T18:29:35.591Z,54.95
2019-03-18T18:34:29.713Z,55.32
2019-03-18T18:39:25.605Z,55.65
2019-03-18T18:44:19.630Z,56.77
2019-03-18T18:49:13.624Z,57.41
2019-03-18T18:54:07.853Z,58.61
2019-03-18T18:59:01.965Z,58.84
2019-03-18T19:03:55.976Z,60.29
2019-03-18T19:08:51.611Z,60.44
2019-03-18T19:13:45.842Z,60.47
2019-03-18T19:18:39.861Z,61.86
2019-03-18T19:23:38.016Z,62.64
2019-03-18T19:28:29.929Z,63.91
2019-03-18T19:33:24.064Z,65.45
2019-03-18T19:38:18.182Z,66.81
2019-03-18T19:43:12.223Z,67.87
2019-03-18T19:48:06.228Z,68.73
2019-03-18T19:53:00.423Z,69.29
2019-03-18T19:57:54.466Z,70.28
2019-03-18T20:02:48.609Z,70.86
2019-03-18T20:07:42.830Z,71.31
2019-03-18T20:12:36.927Z,70.96
2019-03-18T20:17:31.036Z,70.18
2019-03-18T20:22:25.114Z,70.44
2019-03-18T20:27:19.073Z,70.23
2019-03-18T20:32:13.192Z,70.84
2019-03-18T20:37:07.182Z,70.72
2019-03-18T20:42:01.219Z,70.27
2019-03-18T20:46:55.270Z,70.78
2019-03-18T20:51:49.363Z,71.64
2019-03-18T20:56:43.374Z,72.25
2019-03-18T21:01:37.345Z,72.83
2019-03-18T21:06:31.582Z,73.34
2019-03-18T21:11:25.535Z,73.61
2019-03-18T21:16:19.635Z,74.42
2019-03-18T21:21:13.755Z,75.11
2019-03-18T21:26:08.136Z,75.63
2019-03-18T21:31:02.173Z,76.25
2019-03-18T21:35:56.290Z,76.41
2019-03-18T21:40:50.454Z,76.99
2019-03-18T21:45:44.484Z,77.48
2019-03-18T21:50:38.489Z,77.92
2019-03-18T21:55:32.500Z,78.41
2019-03-18T22:00:26.555Z,79.05
2019-03-18T22:05:20.541Z,79.26
2019-03-18T22:10:18.769Z,79.65
2019-03-18T22:15:13.556Z,79.86
2019-03-18T22:20:17.628Z,80.54
2019-03-18T22:25:12.406Z,80.80
2019-03-18T22:30:09.040Z,80.86
2019-03-18T22:35:05.395Z,81.24
2019-03-18T22:39:59.398Z,81.65
2019-03-18T22:44:53.340Z,81.91
2019-03-18T22:49:47.328Z,82.07
2019-03-18T22:54:41.303Z,82.52
2019-03-18T22:59:35.302Z,82.68
2019-03-18T23:04:29.272Z,82.95
2019-03-18T23:09:23.238Z,83.51
2019-03-18T23:14:17.242Z,83.29
2019-03-18T23:19:11.297Z,83.41
2019-03-18T23:24:05.287Z,83.64
2019-03-18T23:28:59.342Z,83.87
2019-03-18T23:33:53.332Z,84.34
2019-03-18T23:38:47.307Z,84.58
2019-03-18T23:43:41.367Z,84.69
2019-03-18T23:48:35.330Z,84.91
2019-03-18T23:53:29.286Z,84.70
2019-03-18T23:58:23.244Z,84.25
